Time;durP1;ratioP1;P1;durP2;ratioP2;P2;SDS_P1;SDS_P2;PMS_P1;PMS_P2;Temp;Humidity;BMP_temperature;BMP_pressure;BME280_temperature;BME280_humidity;BME280_pressure;Samples;Min_cycle;Max_cycle;Signal;HPM_P1;HPM_P2
2023/01/30 00:02:12;;;;;;;30.73;12.52;;;5.50;95.50;;;;;;5093902;28;20039;-78
2023/01/30 00:04:38;;;;;;;33.35;12.13;;;5.50;95.50;;;;;;5093880;28;20016;-77
2023/01/30 00:07:04;;;;;;;26.23;10.82;;;5.60;95.40;;;;;;5093861;28;20382;-78
2023/01/30 00:09:30;;;;;;;30.67;12.65;;;5.60;95.60;;;;;;5093776;28;20397;-77
2023/01/30 00:11:55;;;;;;;37.20;13.15;;;5.60;95.60;;;;;;5093754;28;20040;-77
2023/01/30 00:14:21;;;;;;;32.67;13.10;;;5.60;95.60;;;;;;5076312;28;20052;-78
2023/01/30 00:16:46;;;;;;;33.67;13.00;;;5.70;95.60;;;;;;5093695;28;20043;-78
2023/01/30 00:19:12;;;;;;;36.78;13.18;;;5.70;95.80;;;;;;5093844;28;20036;-78
2023/01/30 00:21:38;;;;;;;26.70;11.32;;;5.70;95.80;;;;;;5093547;28;20090;-77
2023/01/30 00:24:04;;;;;;;33.67;13.50;;;5.80;95.70;;;;;;5093593;28;20017;-78
2023/01/30 00:26:29;;;;;;;34.22;13.32;;;5.80;95.70;;;;;;5093233;28;20393;-77
2023/01/30 00:28:55;;;;;;;30.02;11.32;;;5.80;95.70;;;;;;5093491;28;20029;-77
2023/01/30 00:31:20;;;;;;;26.10;11.13;;;5.90;95.70;;;;;;5093536;28;20052;-78
2023/01/30 00:33:46;;;;;;;29.38;11.43;;;5.90;95.70;;;;;;5075794;28;20033;-78
2023/01/30 00:36:12;;;;;;;31.70;12.23;;;5.90;95.80;;;;;;5093472;28;20028;-78
2023/01/30 00:38:38;;;;;;;31.17;13.05;;;5.90;95.80;;;;;;5093231;28;20048;-78
2023/01/30 00:41:03;;;;;;;28.05;12.38;;;6.00;95.60;;;;;;5093348;28;20040;-78
2023/01/30 00:49:19;;;;;;;26.65;11.45;;;6.10;95.80;;;;;;5093484;28;20023;-78
2023/01/30 00:51:44;;;;;;;28.65;11.85;;;6.10;95.80;;;;;;5093285;28;20044;-78
2023/01/30 00:54:10;;;;;;;31.02;13.52;;;6.10;95.90;;;;;;5075551;28;20096;-78
2023/01/30 00:56:36;;;;;;;30.73;12.65;;;6.20;96.00;;;;;;5093256;28;20047;-78
2023/01/30 00:59:01;;;;;;;30.70;13.65;;;6.20;96.00;;;;;;5058772;28;20033;-78
2023/01/30 01:01:27;;;;;;;31.13;12.63;;;6.20;95.90;;;;;;5075306;28;20040;-78
2023/01/30 01:03:52;;;;;;;26.40;10.02;;;6.30;95.80;;;;;;5075494;28;20017;-77
2023/01/30 01:06:18;;;;;;;33.13;13.50;;;6.30;95.80;;;;;;5075427;28;20028;-78
2023/01/30 01:08:44;;;;;;;24.80;11.60;;;6.30;95.80;;;;;;5075385;28;20028;-79
2023/01/30 01:11:09;;;;;;;27.33;11.15;;;6.30;95.90;;;;;;5093111;28;20512;-79
2023/01/30 01:13:35;;;;;;;30.40;11.82;;;6.30;95.90;;;;;;5093055;28;20051;-78
2023/01/30 01:16:01;;;;;;;34.05;14.43;;;6.40;95.90;;;;;;5075340;28;20025;-78
2023/01/30 01:18:27;;;;;;;25.05;10.70;;;6.40;95.80;;;;;;5093030;28;20481;-79
2023/01/30 01:20:52;;;;;;;25.33;10.80;;;6.40;96.00;;;;;;5092998;28;20044;-79
2023/01/30 01:23:18;;;;;;;30.65;11.77;;;6.40;95.90;;;;;;5075357;28;20047;-79
2023/01/30 01:25:44;;;;;;;36.42;13.95;;;6.50;95.80;;;;;;5092949;28;20033;-79
2023/01/30 01:28:09;;;;;;;23.80;10.43;;;6.50;96.00;;;;;;5092966;28;20029;-78
2023/01/30 01:30:37;;;;;;;29.42;12.98;;;6.50;96.00;;;;;;5075327;28;20055;-79
2023/01/30 01:33:02;;;;;;;35.67;12.88;;;6.50;96.00;;;;;;5092877;28;20059;-79
2023/01/30 01:35:28;;;;;;;26.83;11.65;;;6.50;96.00;;;;;;5092909;28;20024;-78
2023/01/30 01:37:54;;;;;;;27.48;11.13;;;6.50;96.10;;;;;;5092651;28;20028;-79
2023/01/30 01:43:21;;;;;;;31.92;14.35;;;6.50;96.50;;;;;;5092924;28;20051;-78
2023/01/30 01:45:50;;;;;;;25.05;11.05;;;6.60;96.10;;;;;;5075304;28;20021;-79
2023/01/30 01:48:35;;;;;;;31.52;12.85;;;6.60;96.10;;;;;;5092728;28;20047;-78
2023/01/30 01:51:39;;;;;;;26.05;11.40;;;6.60;95.90;;;;;;5092738;28;20036;-78
2023/01/30 01:54:19;;;;;;;40.45;15.80;;;6.70;95.90;;;;;;4991979;28;20508;-79
2023/01/30 01:56:46;;;;;;;28.77;12.65;;;6.70;95.80;;;;;;5064429;28;20083;-79
2023/01/30 01:59:27;;;;;;;26.52;11.60;;;6.70;95.80;;;;;;5095386;28;20020;-79
2023/01/30 02:01:59;;;;;;;31.88;13.13;;;6.70;95.80;;;;;;5078576;28;20024;-78
2023/01/30 02:07:10;;;;;;;25.42;12.43;;;6.70;96.00;;;;;;5096362;28;20250;-78
2023/01/30 02:09:36;;;;;;;31.65;13.48;;;6.80;96.00;;;;;;5096081;28;20084;-78
2023/01/30 02:12:03;;;;;;;28.77;12.73;;;6.80;96.00;;;;;;5096126;28;20051;-78
2023/01/30 02:14:32;;;;;;;28.52;12.63;;;6.80;96.00;;;;;;5096060;28;20036;-78
2023/01/30 02:16:57;;;;;;;27.55;12.18;;;6.90;95.90;;;;;;5096014;28;20020;-79
2023/01/30 02:19:34;;;;;;;35.08;13.77;;;6.80;96.00;;;;;;5078330;28;20039;-79
2023/01/30 02:22:17;;;;;;;30.30;12.95;;;6.90;96.00;;;;;;5096018;28;20029;-79
2023/01/30 02:25:17;;;;;;;27.90;13.45;;;6.90;96.10;;;;;;5095933;28;20032;-78
2023/01/30 02:28:09;;;;;;;34.72;12.68;;;6.90;96.10;;;;;;5095853;28;20063;-79
2023/01/30 02:31:12;;;;;;;31.15;12.07;;;6.90;96.20;;;;;;5078160;28;20020;-78
2023/01/30 02:33:52;;;;;;;23.10;10.60;;;6.90;96.30;;;;;;5095756;28;20055;-79
2023/01/30 02:36:56;;;;;;;28.52;12.30;;;6.90;96.40;;;;;;5095881;28;20020;-79
2023/01/30 02:39:40;;;;;;;28.33;12.20;;;6.90;96.60;;;;;;5039787;28;20052;-79
2023/01/30 02:42:25;;;;;;;34.65;13.90;;;6.90;96.70;;;;;;5095544;28;20057;-79
2023/01/30 02:45:27;;;;;;;30.60;12.18;;;6.80;96.80;;;;;;5095576;28;20028;-78
2023/01/30 02:48:05;;;;;;;26.25;11.25;;;6.90;96.80;;;;;;5095654;28;20091;-79
2023/01/30 02:50:48;;;;;;;29.63;12.60;;;6.90;96.70;;;;;;5095429;28;20032;-78
2023/01/30 02:53:14;;;;;;;30.83;13.98;;;6.90;96.70;;;;;;5077749;28;20029;-79
2023/01/30 02:55:41;;;;;;;29.60;12.25;;;6.90;96.70;;;;;;5060916;28;20396;-78
2023/01/30 02:58:08;;;;;;;25.15;11.05;;;7.00;96.80;;;;;;5077574;28;20032;-79
2023/01/30 03:00:58;;;;;;;27.77;12.88;;;7.00;96.80;;;;;;5077367;28;20036;-79
2023/01/30 03:03:42;;;;;;;28.02;11.32;;;7.00;96.70;;;;;;5095289;28;20024;-78
2023/01/30 03:06:14;;;;;;;28.75;12.52;;;7.00;96.90;;;;;;5095146;28;20044;-78
2023/01/30 03:08:49;;;;;;;28.10;12.60;;;6.90;97.10;;;;;;5094977;28;20024;-78
2023/01/30 03:11:15;;;;;;;31.35;13.20;;;6.90;97.30;;;;;;5094238;28;20039;-78
2023/01/30 03:14:00;;;;;;;31.83;12.27;;;7.00;97.70;;;;;;5095004;28;20052;-79
2023/01/30 03:16:30;;;;;;;28.65;12.50;;;6.90;97.50;;;;;;5094968;28;20028;-79
2023/01/30 03:18:58;;;;;;;28.50;13.50;;;6.90;97.80;;;;;;5094917;28;20066;-79
2023/01/30 03:21:24;;;;;;;26.42;11.00;;;6.90;97.90;;;;;;5094801;28;20195;-79
2023/01/30 03:23:50;;;;;;;26.05;12.05;;;6.90;98.00;;;;;;5094769;28;20032;-78
2023/01/30 03:26:23;;;;;;;28.48;12.60;;;6.90;98.00;;;;;;5094675;28;20020;-79
2023/01/30 03:28:50;;;;;;;25.58;11.63;;;6.90;98.00;;;;;;5094710;28;20016;-79
2023/01/30 03:31:15;;;;;;;31.88;12.55;;;6.90;98.10;;;;;;5094609;28;20028;-78
2023/01/30 03:33:42;;;;;;;28.38;12.90;;;6.90;98.20;;;;;;5094526;28;20042;-78
2023/01/30 03:36:08;;;;;;;29.05;12.18;;;6.90;98.30;;;;;;5094476;28;20033;-78
2023/01/30 03:38:34;;;;;;;27.00;12.05;;;6.90;98.30;;;;;;5065479;28;20045;-78
2023/01/30 03:41:01;;;;;;;28.05;11.85;;;6.90;98.50;;;;;;5054298;28;20092;-78
2023/01/30 03:43:27;;;;;;;29.45;11.35;;;6.90;98.50;;;;;;5054294;28;20024;-79
2023/01/30 03:45:53;;;;;;;26.48;12.20;;;6.90;98.60;;;;;;5054408;28;20088;-78
2023/01/30 03:48:18;;;;;;;36.10;13.77;;;6.90;98.70;;;;;;5054245;28;20081;-78
2023/01/30 03:50:44;;;;;;;27.75;12.38;;;6.90;98.80;;;;;;5054150;28;20060;-78
2023/01/30 03:53:10;;;;;;;29.70;11.52;;;6.90;98.80;;;;;;5054149;28;20028;-79
2023/01/30 03:55:36;;;;;;;31.92;12.93;;;7.00;98.90;;;;;;5054053;28;20509;-78
2023/01/30 03:58:01;;;;;;;30.30;13.10;;;6.90;98.90;;;;;;5054082;28;20030;-78
2023/01/30 04:00:27;;;;;;;31.27;12.38;;;7.00;98.80;;;;;;5052870;28;20044;-79
2023/01/30 04:02:54;;;;;;;26.27;12.27;;;7.00;98.80;;;;;;5052938;28;20025;-78
2023/01/30 04:05:19;;;;;;;26.60;11.55;;;7.00;99.00;;;;;;5053957;28;20039;-78
2023/01/30 04:07:45;;;;;;;28.33;12.40;;;7.00;99.00;;;;;;5053789;28;20033;-78
2023/01/30 04:10:14;;;;;;;20.60;9.77;;;7.10;98.90;;;;;;5053839;28;20048;-79
2023/01/30 04:12:42;;;;;;;18.48;8.05;;;7.10;99.10;;;;;;5052763;28;20030;-79
2023/01/30 04:15:09;;;;;;;25.63;11.30;;;7.10;99.20;;;;;;5053745;28;20033;-78
2023/01/30 04:17:35;;;;;;;25.33;10.68;;;7.10;99.10;;;;;;5052709;28;20093;-78
2023/01/30 04:20:00;;;;;;;27.00;11.60;;;7.10;99.00;;;;;;5053672;28;20032;-78
2023/01/30 04:22:26;;;;;;;18.20;9.23;;;7.20;99.00;;;;;;5052315;28;20025;-79
2023/01/30 04:24:51;;;;;;;24.48;10.73;;;7.20;99.30;;;;;;5053592;28;20494;-78
2023/01/30 04:27:17;;;;;;;20.50;8.52;;;7.20;99.20;;;;;;5052579;28;20037;-79
2023/01/30 04:29:42;;;;;;;22.50;9.50;;;7.30;99.20;;;;;;5052644;28;20060;-78
2023/01/30 04:32:08;;;;;;;15.73;6.45;;;7.20;99.10;;;;;;5052571;28;20030;-78
2023/01/30 04:34:34;;;;;;;17.48;9.00;;;7.30;99.20;;;;;;5053440;28;20037;-79
2023/01/30 04:36:59;;;;;;;18.70;8.30;;;7.30;99.20;;;;;;5053415;28;20034;-77
2023/01/30 04:39:25;;;;;;;11.27;5.43;;;7.30;99.20;;;;;;5082978;28;20048;-79
2023/01/30 04:41:50;;;;;;;18.52;7.03;;;7.40;99.20;;;;;;5093380;28;20032;-78
2023/01/30 04:44:16;;;;;;;12.45;5.60;;;7.40;99.20;;;;;;5093396;28;20074;-78
2023/01/30 04:46:41;;;;;;;16.08;7.15;;;7.40;99.20;;;;;;5093383;28;20036;-78
2023/01/30 04:49:09;;;;;;;15.18;6.28;;;7.50;99.10;;;;;;5093336;28;20025;-78
2023/01/30 04:51:35;;;;;;;13.38;6.72;;;7.50;99.00;;;;;;5075571;28;20051;-78
2023/01/30 04:54:01;;;;;;;14.27;6.28;;;7.50;99.00;;;;;;5093434;28;20036;-78
2023/01/30 04:56:26;;;;;;;16.65;6.47;;;7.60;99.00;;;;;;5093252;28;20029;-78
2023/01/30 04:58:52;;;;;;;18.15;6.93;;;7.60;98.90;;;;;;5093217;28;20477;-79
2023/01/30 05:01:22;;;;;;;11.48;6.22;;;7.70;98.80;;;;;;5093123;28;20033;-78
2023/01/30 05:03:52;;;;;;;12.88;6.43;;;7.70;98.70;;;;;;5093253;28;20023;-78
2023/01/30 05:06:18;;;;;;;14.68;6.85;;;7.70;98.60;;;;;;5093188;28;20078;-79
2023/01/30 05:08:48;;;;;;;14.20;5.35;;;7.70;98.50;;;;;;5093078;28;20024;-78
2023/01/30 05:11:13;;;;;;;15.20;6.78;;;7.80;98.40;;;;;;5093131;28;20027;-78
2023/01/30 05:13:39;;;;;;;16.40;7.07;;;7.80;98.50;;;;;;5093229;28;20405;-78
2023/01/30 05:16:05;;;;;;;20.17;6.47;;;7.80;98.40;;;;;;5093083;28;20048;-78
2023/01/30 05:18:30;;;;;;;15.77;7.43;;;7.80;98.40;;;;;;5093139;28;20040;-78
2023/01/30 05:21:03;;;;;;;12.98;5.70;;;7.80;98.30;;;;;;5093124;28;20035;-78
2023/01/30 05:23:29;;;;;;;16.80;7.10;;;7.90;98.10;;;;;;5093052;28;20078;-78
2023/01/30 05:25:55;;;;;;;14.00;6.18;;;7.90;98.00;;;;;;5092947;28;20048;-78
2023/01/30 05:28:21;;;;;;;13.98;5.93;;;7.90;98.00;;;;;;5092926;28;20021;-78
2023/01/30 05:30:46;;;;;;;11.45;5.40;;;7.90;98.00;;;;;;5092924;28;20060;-78
2023/01/30 05:33:12;;;;;;;16.17;6.40;;;7.90;97.80;;;;;;5094127;28;20036;-78
2023/01/30 05:35:37;;;;;;;14.55;6.13;;;7.90;97.80;;;;;;5096856;28;20082;-79
2023/01/30 05:38:03;;;;;;;14.70;5.50;;;8.00;97.80;;;;;;5096431;28;20112;-78
2023/01/30 05:40:28;;;;;;;14.95;5.13;;;8.00;97.60;;;;;;5096827;28;20040;-78
2023/01/30 05:42:54;;;;;;;16.60;7.03;;;8.10;97.50;;;;;;5096719;28;20050;-78
2023/01/30 05:45:20;;;;;;;9.77;4.93;;;8.00;97.30;;;;;;5062227;28;20025;-78
2023/01/30 05:47:50;;;;;;;13.68;5.13;;;8.00;97.20;;;;;;5096520;28;20047;-78
2023/01/30 05:50:17;;;;;;;12.70;4.95;;;8.00;97.10;;;;;;5096512;28;20018;-78
2023/01/30 05:52:42;;;;;;;13.90;5.30;;;8.00;97.00;;;;;;5045673;28;20036;-78
2023/01/30 05:55:08;;;;;;;11.85;4.47;;;8.00;96.90;;;;;;5096389;28;20048;-78
2023/01/30 05:57:34;;;;;;;14.88;4.43;;;8.00;96.80;;;;;;5096364;28;20025;-78
2023/01/30 05:59:59;;;;;;;11.90;4.10;;;8.00;96.50;;;;;;5078708;28;20080;-79
2023/01/30 06:02:25;;;;;;;10.10;4.30;;;8.00;96.40;;;;;;5078603;28;20033;-79
2023/01/30 06:04:51;;;;;;;10.82;4.20;;;8.00;96.20;;;;;;5061994;28;20024;-78
2023/01/30 06:07:16;;;;;;;12.90;4.00;;;8.00;96.20;;;;;;5096332;28;20024;-79
2023/01/30 06:09:43;;;;;;;14.57;3.45;;;8.00;96.10;;;;;;5096107;28;20032;-78
2023/01/30 06:12:08;;;;;;;7.90;3.00;;;8.00;96.10;;;;;;5096167;28;20111;-78
2023/01/30 06:14:34;;;;;;;12.40;3.40;;;8.00;96.00;;;;;;5096071;28;20054;-79
2023/01/30 06:16:59;;;;;;;6.18;2.65;;;8.00;95.90;;;;;;5095983;28;20028;-78
2023/01/30 06:19:25;;;;;;;10.27;3.33;;;8.00;95.90;;;;;;5095985;28;20032;-78
2023/01/30 06:21:51;;;;;;;7.78;2.85;;;8.00;95.80;;;;;;5078145;28;20037;-78
2023/01/30 06:24:16;;;;;;;10.18;3.05;;;8.00;95.60;;;;;;5095899;28;20028;-78
2023/01/30 06:26:42;;;;;;;9.50;2.60;;;8.00;95.50;;;;;;5095875;28;20032;-78
2023/01/30 06:29:07;;;;;;;8.15;2.60;;;8.00;95.40;;;;;;5095834;28;20028;-78
2023/01/30 06:31:33;;;;;;;8.75;2.70;;;8.00;95.30;;;;;;5078058;28;20036;-78
2023/01/30 06:33:59;;;;;;;7.15;2.08;;;7.90;95.30;;;;;;5095769;28;20058;-78
2023/01/30 06:36:24;;;;;;;5.35;1.70;;;8.00;95.10;;;;;;5078035;28;20055;-79
2023/01/30 06:38:50;;;;;;;6.85;2.00;;;7.90;95.10;;;;;;5077904;28;20059;-78
2023/01/30 06:41:15;;;;;;;4.68;2.03;;;7.90;94.80;;;;;;5095536;28;20044;-78
2023/01/30 06:43:41;;;;;;;7.55;1.77;;;7.90;94.70;;;;;;5095441;28;20025;-78
2023/01/30 06:46:07;;;;;;;9.95;2.25;;;7.90;94.50;;;;;;5095510;28;20051;-78
2023/01/30 06:48:32;;;;;;;5.70;1.92;;;7.90;94.30;;;;;;5095461;28;20052;-78
2023/01/30 06:50:58;;;;;;;5.45;1.80;;;7.90;94.20;;;;;;5095432;28;20037;-78
2023/01/30 06:53:29;;;;;;;6.68;1.90;;;7.90;94.10;;;;;;5077744;28;20059;-78
2023/01/30 06:55:56;;;;;;;8.07;1.65;;;7.80;93.90;;;;;;5095378;28;20031;-78
2023/01/30 06:58:21;;;;;;;5.38;1.45;;;7.80;93.60;;;;;;5095280;28;20028;-78
2023/01/30 07:00:47;;;;;;;8.27;2.05;;;7.70;93.50;;;;;;5095121;28;20037;-78
2023/01/30 07:03:15;;;;;;;9.55;1.92;;;7.80;93.50;;;;;;5095052;28;20043;-78
2023/01/30 07:05:42;;;;;;;6.03;1.55;;;7.70;92.90;;;;;;5095078;28;20068;-78
2023/01/30 07:08:08;;;;;;;5.80;1.73;;;7.70;92.80;;;;;;5094986;28;20473;-78
2023/01/30 07:10:34;;;;;;;5.38;1.65;;;7.70;92.90;;;;;;5095046;28;20060;-78
2023/01/30 07:13:00;;;;;;;4.05;1.20;;;7.70;92.60;;;;;;5077201;28;20095;-77
2023/01/30 07:15:26;;;;;;;7.97;1.58;;;7.70;92.40;;;;;;5094958;28;20084;-78
2023/01/30 07:17:52;;;;;;;7.00;1.75;;;7.60;92.10;;;;;;5094872;28;20036;-78
2023/01/30 07:20:18;;;;;;;6.88;1.67;;;7.70;91.90;;;;;;5094843;28;20088;-78
2023/01/30 07:22:51;;;;;;;10.05;1.63;;;7.70;91.60;;;;;;5094757;28;20029;-78
2023/01/30 07:25:17;;;;;;;4.25;1.17;;;7.60;91.70;;;;;;5094745;28;20030;-77
2023/01/30 07:27:48;;;;;;;3.33;1.50;;;7.60;91.60;;;;;;5094670;28;20048;-77
2023/01/30 07:30:14;;;;;;;6.13;1.60;;;7.60;91.40;;;;;;5094753;28;20062;-79
2023/01/30 07:32:39;;;;;;;11.23;1.85;;;7.60;91.30;;;;;;5094613;28;20028;-78
2023/01/30 07:35:05;;;;;;;9.30;1.88;;;7.50;91.50;;;;;;5076951;28;20083;-78
2023/01/30 07:37:31;;;;;;;7.15;1.58;;;7.50;91.50;;;;;;5094490;28;20032;-79
2023/01/30 07:39:57;;;;;;;3.97;1.17;;;7.50;91.60;;;;;;5076738;28;20070;-78
2023/01/30 07:42:22;;;;;;;9.10;1.58;;;7.50;91.60;;;;;;5094353;28;20028;-78
2023/01/30 07:44:48;;;;;;;8.00;1.20;;;7.50;91.50;;;;;;5094372;28;20024;-77
2023/01/30 07:47:14;;;;;;;7.82;1.58;;;7.50;91.50;;;;;;5076891;28;20099;-78
2023/01/30 07:49:39;;;;;;;7.55;1.90;;;7.50;91.60;;;;;;5094270;28;20028;-78
2023/01/30 07:52:05;;;;;;;5.15;1.70;;;7.50;91.60;;;;;;5060106;28;20028;-78
2023/01/30 07:54:30;;;;;;;7.60;2.40;;;7.50;91.60;;;;;;5094196;28;20044;-78
2023/01/30 07:56:56;;;;;;;10.65;2.47;;;7.50;91.60;;;;;;5076161;28;20032;-78
2023/01/30 07:59:22;;;;;;;7.00;2.28;;;7.50;91.60;;;;;;5094057;28;20029;-78
2023/01/30 08:01:47;;;;;;;8.02;1.40;;;7.50;91.60;;;;;;5076293;28;20021;-78
2023/01/30 08:04:13;;;;;;;4.97;1.52;;;7.50;91.30;;;;;;5094008;28;20063;-78
2023/01/30 08:06:38;;;;;;;7.32;1.48;;;7.50;91.40;;;;;;5076372;28;20021;-78
2023/01/30 08:09:05;;;;;;;12.27;1.83;;;7.50;91.30;;;;;;5093809;28;20033;-78
2023/01/30 08:11:31;;;;;;;7.68;2.10;;;7.50;91.30;;;;;;5093838;28;20025;-78
2023/01/30 08:13:57;;;;;;;8.73;1.70;;;7.50;91.30;;;;;;5093833;28;20031;-78
2023/01/30 08:16:22;;;;;;;10.27;2.03;;;7.50;91.20;;;;;;5093780;28;20064;-78
2023/01/30 08:18:48;;;;;;;9.32;1.92;;;7.50;91.20;;;;;;5093711;28;20092;-78
2023/01/30 08:21:13;;;;;;;11.13;1.80;;;7.50;91.00;;;;;;5093623;28;20056;-78
2023/01/30 08:23:39;;;;;;;5.65;1.20;;;7.50;90.90;;;;;;5093662;28;20035;-78
2023/01/30 08:26:05;;;;;;;8.05;1.67;;;7.50;90.70;;;;;;5093668;28;20017;-78
2023/01/30 08:28:31;;;;;;;7.18;1.80;;;7.50;90.50;;;;;;5093574;28;20039;-77
2023/01/30 08:30:57;;;;;;;6.90;1.45;;;7.60;90.20;;;;;;5093590;28;20125;-79
2023/01/30 08:33:23;;;;;;;5.78;1.70;;;7.70;90.20;;;;;;5075983;28;20051;-77
2023/01/30 08:35:49;;;;;;;10.63;2.95;;;8.00;90.00;;;;;;5093486;28;20039;-78
2023/01/30 08:38:16;;;;;;;10.73;1.83;;;8.30;87.50;;;;;;5075366;28;20048;-77
2023/01/30 08:40:41;;;;;;;6.03;1.20;;;8.50;86.50;;;;;;5093509;28;20573;-78
2023/01/30 08:43:07;;;;;;;9.95;1.48;;;8.70;85.50;;;;;;5093404;28;20024;-77
2023/01/30 08:45:33;;;;;;;7.47;1.70;;;9.00;84.20;;;;;;5093427;28;20100;-77
2023/01/30 08:48:00;;;;;;;12.40;2.08;;;9.30;83.10;;;;;;5075564;28;20028;-78
2023/01/30 08:50:26;;;;;;;13.55;2.15;;;9.50;83.00;;;;;;5093316;28;20024;-78
2023/01/30 08:52:52;;;;;;;8.10;1.70;;;9.80;81.00;;;;;;5075755;28;20035;-78
2023/01/30 08:55:18;;;;;;;4.72;1.40;;;10.00;79.40;;;;;;5093291;28;20033;-78
2023/01/30 08:57:43;;;;;;;8.38;2.47;;;10.30;79.10;;;;;;5075638;28;20021;-78
2023/01/30 09:00:10;;;;;;;8.88;1.50;;;10.40;78.30;;;;;;5093260;28;20080;-77
2023/01/30 09:02:36;;;;;;;7.72;1.85;;;10.60;77.30;;;;;;5093177;28;20111;-78
2023/01/30 09:05:02;;;;;;;8.43;1.65;;;10.80;76.70;;;;;;5075712;28;20036;-78
2023/01/30 09:07:28;;;;;;;6.72;1.45;;;10.90;75.50;;;;;;5093288;28;20025;-78
2023/01/30 09:09:54;;;;;;;7.57;1.45;;;11.00;74.50;;;;;;5097367;28;20449;-78
2023/01/30 09:12:20;;;;;;;12.68;1.88;;;11.10;73.40;;;;;;5097350;28;20048;-78
2023/01/30 09:14:46;;;;;;;6.07;1.13;;;11.30;72.80;;;;;;5079475;28;20028;-78
2023/01/30 09:17:12;;;;;;;6.93;1.58;;;11.40;72.60;;;;;;5079641;28;20024;-78
2023/01/30 09:19:37;;;;;;;11.18;1.70;;;11.50;71.50;;;;;;5079608;28;20036;-78
2023/01/30 09:22:03;;;;;;;8.73;1.30;;;11.60;71.10;;;;;;5097104;28;20029;-78
2023/01/30 09:24:29;;;;;;;9.25;1.75;;;11.70;71.40;;;;;;5097099;28;20048;-78
2023/01/30 09:26:57;;;;;;;7.63;1.67;;;11.80;71.00;;;;;;5097038;28;20051;-78
2023/01/30 09:29:23;;;;;;;7.82;1.65;;;11.90;69.70;;;;;;5097008;28;20021;-78
2023/01/30 09:31:49;;;;;;;9.38;1.25;;;12.00;68.70;;;;;;5096979;28;20095;-78
2023/01/30 09:34:15;;;;;;;12.45;1.80;;;11.70;69.50;;;;;;5079268;28;20060;-78
2023/01/30 09:36:41;;;;;;;10.18;1.58;;;11.30;69.40;;;;;;5096766;28;20025;-78
2023/01/30 09:39:07;;;;;;;6.95;1.25;;;10.90;71.60;;;;;;5096572;28;20041;-78
2023/01/30 09:41:54;;;;;;;7.90;2.15;;;10.50;72.90;;;;;;5096630;28;20040;-78
2023/01/30 09:44:19;;;;;;;7.05;1.38;;;10.30;73.20;;;;;;5096770;28;20020;-78
2023/01/30 09:47:26;;;;;;;9.95;1.70;;;9.90;74.30;;;;;;5096761;28;20032;-78
2023/01/30 09:50:05;;;;;;;6.60;1.25;;;9.80;75.50;;;;;;5047600;28;20066;-78
2023/01/30 09:52:36;;;;;;;11.38;1.48;;;9.60;75.80;;;;;;5079009;28;20027;-78
2023/01/30 09:55:19;;;;;;;7.03;1.13;;;9.50;76.20;;;;;;5078940;28;20051;-78
2023/01/30 09:57:47;;;;;;;6.45;1.52;;;9.40;76.60;;;;;;5096501;28;20075;-78
2023/01/30 10:00:35;;;;;;;8.90;2.42;;;9.30;77.00;;;;;;5096410;28;20032;-78
2023/01/30 10:03:07;;;;;;;8.52;1.63;;;9.30;76.90;;;;;;5096363;28;20058;-78
2023/01/30 10:05:41;;;;;;;9.43;1.52;;;9.20;78.00;;;;;;5078660;28;20028;-78
2023/01/30 10:08:39;;;;;;;6.60;1.30;;;9.20;78.60;;;;;;5096315;28;20062;-79
2023/01/30 10:11:19;;;;;;;5.53;1.40;;;9.10;78.00;;;;;;5096339;28;20031;-79
2023/01/30 10:13:53;;;;;;;8.07;1.35;;;9.10;78.40;;;;;;5078403;28;20032;-79
2023/01/30 10:16:30;;;;;;;6.63;1.63;;;9.00;78.50;;;;;;5078436;28;20049;-79
2023/01/30 10:19:26;;;;;;;4.07;1.20;;;9.00;78.50;;;;;;5095714;28;20025;-78
2023/01/30 10:22:14;;;;;;;6.97;1.77;;;9.00;78.50;;;;;;5095990;28;20058;-78
2023/01/30 10:24:58;;;;;;;7.70;1.45;;;9.00;78.00;;;;;;5047298;28;20060;-78
2023/01/30 10:27:26;;;;;;;9.23;1.58;;;9.00;78.80;;;;;;5078241;28;20079;-78
2023/01/30 10:29:55;;;;;;;7.07;1.45;;;9.00;78.60;;;;;;5095877;28;20024;-78
2023/01/30 10:32:40;;;;;;;4.13;1.10;;;9.00;78.90;;;;;;5078139;28;20028;-79
2023/01/30 10:35:15;;;;;;;10.23;1.48;;;9.10;78.30;;;;;;5095773;28;20025;-78
2023/01/30 10:37:45;;;;;;;7.80;2.20;;;9.20;78.50;;;;;;5095804;28;20031;-79
2023/01/30 10:40:39;;;;;;;8.07;1.42;;;9.20;77.60;;;;;;5095544;28;20041;-78
2023/01/30 10:43:30;;;;;;;4.20;1.30;;;9.20;77.50;;;;;;5095651;28;20084;-78
2023/01/30 10:46:33;;;;;;;7.40;1.45;;;9.20;77.30;;;;;;5095672;28;20025;-79
2023/01/30 10:49:10;;;;;;;11.38;1.48;;;9.10;77.60;;;;;;5095525;28;20058;-79
2023/01/30 10:51:57;;;;;;;8.65;1.27;;;9.10;77.10;;;;;;5095499;28;20020;-79
2023/01/30 10:54:37;;;;;;;8.45;1.67;;;9.10;77.90;;;;;;5077756;28;20055;-78
2023/01/30 10:57:06;;;;;;;9.75;1.45;;;9.20;77.60;;;;;;5095347;28;20048;-79
2023/01/30 10:59:54;;;;;;;5.90;1.15;;;9.20;77.90;;;;;;5095327;28;20032;-79
2023/01/30 11:02:20;;;;;;;7.13;0.90;;;9.20;77.50;;;;;;5095382;28;20020;-78
2023/01/30 11:04:57;;;;;;;6.05;1.30;;;9.20;77.90;;;;;;5077523;28;20027;-78
2023/01/30 11:07:23;;;;;;;6.63;1.27;;;9.20;79.20;;;;;;5095191;28;20027;-78
2023/01/30 11:09:49;;;;;;;6.78;1.40;;;9.20;77.30;;;;;;5095070;28;20048;-79
2023/01/30 11:12:14;;;;;;;6.05;1.42;;;9.20;77.80;;;;;;5095026;28;20056;-79
2023/01/30 11:15:03;;;;;;;9.32;1.38;;;9.20;77.90;;;;;;5094780;28;20050;-79
2023/01/30 11:17:34;;;;;;;5.53;1.42;;;9.20;78.10;;;;;;5094998;28;20021;-79
2023/01/30 11:20:10;;;;;;;8.25;1.65;;;9.20;77.00;;;;;;5095029;28;20055;-78
2023/01/30 11:22:36;;;;;;;7.78;1.15;;;9.20;78.10;;;;;;5094757;28;20028;-79
2023/01/30 11:25:14;;;;;;;10.00;1.35;;;9.30;78.20;;;;;;5094741;28;20024;-79
2023/01/30 11:27:43;;;;;;;6.22;1.20;;;9.30;77.50;;;;;;5094761;28;20032;-78
2023/01/30 11:30:16;;;;;;;6.40;1.55;;;9.30;77.80;;;;;;5094127;28;20023;-77
2023/01/30 11:32:43;;;;;;;7.93;1.17;;;9.40;78.10;;;;;;5094514;28;20051;-78
2023/01/30 11:35:09;;;;;;;9.10;1.27;;;9.40;78.20;;;;;;5094571;28;20028;-79
2023/01/30 11:37:37;;;;;;;7.07;0.98;;;9.40;77.90;;;;;;5094540;28;20040;-78
2023/01/30 11:40:22;;;;;;;6.13;1.15;;;9.40;76.60;;;;;;5094187;28;20096;-78
2023/01/30 11:42:50;;;;;;;9.43;1.75;;;9.40;77.40;;;;;;5094455;28;20039;-79
2023/01/30 11:45:24;;;;;;;10.27;2.25;;;9.40;77.70;;;;;;5076663;28;20044;-79
2023/01/30 11:47:55;;;;;;;7.55;1.38;;;9.40;77.10;;;;;;5094381;28;20046;-78
2023/01/30 11:50:25;;;;;;;14.45;2.42;;;9.40;77.40;;;;;;5094339;28;20080;-78
2023/01/30 11:52:51;;;;;;;8.40;1.27;;;9.40;76.60;;;;;;5094340;28;20021;-78
2023/01/30 11:55:19;;;;;;;6.03;1.63;;;9.40;77.30;;;;;;5094203;28;20032;-79
2023/01/30 11:57:50;;;;;;;9.88;1.83;;;9.50;76.80;;;;;;5094130;28;20025;-79
2023/01/30 12:25:57;;;;;;;5.93;1.73;;;9.10;77.90;;;;;;5090968;28;20390;-76
2023/01/30 12:28:41;;;;;;;6.93;1.35;;;9.10;78.60;;;;;;5090665;28;20033;-77
2023/01/30 12:31:45;;;;;;;7.13;1.67;;;9.20;77.80;;;;;;5089625;28;20050;-76
2023/01/30 12:34:11;;;;;;;9.35;1.55;;;9.20;77.20;;;;;;5089621;28;20054;-75
2023/01/30 12:37:03;;;;;;;8.90;1.77;;;9.30;77.50;;;;;;5090542;28;20029;-76
2023/01/30 12:39:52;;;;;;;11.00;1.60;;;9.30;77.00;;;;;;5088103;28;20033;-75
2023/01/30 12:42:46;;;;;;;11.30;1.75;;;9.30;76.50;;;;;;5090275;28;20335;-75
2023/01/30 12:45:31;;;;;;;9.00;1.88;;;9.40;77.60;;;;;;5090309;28;20031;-76
2023/01/30 12:48:15;;;;;;;13.48;2.20;;;9.60;77.70;;;;;;5089281;28;20037;-76
2023/01/30 12:50:56;;;;;;;8.45;1.35;;;9.70;76.30;;;;;;5089214;28;20025;-76
2023/01/30 12:53:43;;;;;;;9.88;1.58;;;9.80;76.60;;;;;;5090317;28;20029;-76
2023/01/30 12:56:31;;;;;;;10.85;1.83;;;9.90;76.20;;;;;;5090061;28;20035;-76
2023/01/30 12:59:33;;;;;;;7.35;1.42;;;9.90;75.50;;;;;;5090121;28;20032;-76
2023/01/30 13:02:05;;;;;;;8.50;1.35;;;9.80;74.50;;;;;;5089028;28;20024;-76
2023/01/30 13:05:03;;;;;;;13.37;2.60;;;9.80;75.40;;;;;;5088979;28;20032;-76
2023/01/30 13:07:34;;;;;;;12.23;1.58;;;9.80;75.80;;;;;;5084941;28;20033;-76
2023/01/30 13:10:24;;;;;;;9.80;1.50;;;9.80;75.00;;;;;;5089850;28;20092;-76
2023/01/30 13:13:41;;;;;;;9.38;2.20;;;9.70;74.60;;;;;;5089719;28;20021;-75
2023/01/30 13:16:41;;;;;;;11.57;2.00;;;9.80;74.40;;;;;;5071256;28;20040;-76
2023/01/30 13:19:28;;;;;;;8.27;1.42;;;9.80;74.80;;;;;;5088767;28;20112;-76
2023/01/30 13:22:04;;;;;;;14.15;1.80;;;9.70;74.00;;;;;;5089742;28;20029;-75
2023/01/30 13:24:45;;;;;;;16.05;1.67;;;9.80;74.60;;;;;;5088268;28;20048;-75
2023/01/30 13:27:17;;;;;;;11.05;1.55;;;9.80;72.60;;;;;;5089526;28;20032;-76
2023/01/30 13:29:45;;;;;;;9.82;1.23;;;9.80;73.10;;;;;;5089419;28;20021;-76
2023/01/30 13:32:35;;;;;;;16.08;1.95;;;9.90;72.60;;;;;;5072094;28;20021;-76
2023/01/30 13:35:05;;;;;;;8.80;1.50;;;10.00;73.30;;;;;;5084862;28;20041;-76
2023/01/30 13:37:32;;;;;;;10.88;1.45;;;10.10;72.50;;;;;;5074922;28;20036;-76
2023/01/30 13:40:28;;;;;;;6.95;1.80;;;10.10;71.30;;;;;;5074983;28;20029;-76
2023/01/30 13:43:09;;;;;;;6.30;1.25;;;10.10;71.10;;;;;;5075564;28;20044;-76
2023/01/30 13:45:39;;;;;;;10.20;1.70;;;10.00;71.20;;;;;;5075936;28;20055;-76